createdAt,value
2017-09-21T00:00:20.755Z,8.45
2017-09-21T00:01:20.352Z,8.41
2017-09-21T00:02:20.267Z,8.38
2017-09-21T00:03:20.284Z,8.46
2017-09-21T00:04:20.231Z,8.38
2017-09-21T00:05:20.231Z,8.44
2017-09-21T00:06:20.237Z,8.46
2017-09-21T00:07:20.197Z,8.48
2017-09-21T00:08:20.185Z,8.56
2017-09-21T00:09:20.144Z,8.51
2017-09-21T00:10:20.146Z,8.36
2017-09-21T00:11:20.115Z,8.53
2017-09-21T00:12:20.121Z,8.48
2017-09-21T00:13:20.061Z,8.51
2017-09-21T00:14:20.056Z,8.38
2017-09-21T00:15:20.036Z,8.49
2017-09-21T00:16:20.019Z,8.51
2017-09-21T00:17:20.000Z,8.49
2017-09-21T00:18:20.035Z,8.48
2017-09-21T00:19:19.960Z,8.48
2017-09-21T00:20:19.941Z,8.46
2017-09-21T00:21:19.907Z,8.49
2017-09-21T00:22:19.916Z,8.42
2017-09-21T00:23:19.864Z,8.42
2017-09-21T00:24:19.857Z,8.44
2017-09-21T00:25:19.866Z,8.45
2017-09-21T00:26:19.808Z,8.45
2017-09-21T00:27:19.802Z,8.41
2017-09-21T00:28:19.778Z,8.46
2017-09-21T00:29:19.770Z,8.41
2017-09-21T00:30:19.739Z,8.37
2017-09-21T00:31:19.744Z,8.36
2017-09-21T00:32:19.702Z,8.37
2017-09-21T00:33:19.684Z,8.28
2017-09-21T00:34:19.668Z,8.34
2017-09-21T00:35:19.650Z,8.28
2017-09-21T00:36:19.624Z,8.28
2017-09-21T00:37:19.601Z,8.26
2017-09-21T00:38:19.599Z,8.27
2017-09-21T00:39:19.559Z,8.16
2017-09-21T00:40:19.555Z,8.18
2017-09-21T00:41:19.545Z,8.18
2017-09-21T00:42:19.523Z,8.13
2017-09-21T00:43:19.495Z,8.16
2017-09-21T00:44:19.487Z,8.13
2017-09-21T00:45:19.456Z,8.12
2017-09-21T00:46:19.459Z,8.15
2017-09-21T00:47:19.422Z,8.05
2017-09-21T00:48:19.394Z,8.13
2017-09-21T00:49:19.388Z,8.15
2017-09-21T00:50:19.349Z,8.05
2017-09-21T00:51:19.348Z,8.16
2017-09-21T00:52:19.318Z,8.13
2017-09-21T00:53:19.301Z,8.12
2017-09-21T00:54:19.306Z,8.10
2017-09-21T00:55:19.254Z,8.13
2017-09-21T00:56:19.243Z,8.13
2017-09-21T00:57:19.249Z,8.09
2017-09-21T00:58:19.222Z,8.13
2017-09-21T00:59:19.200Z,8.12
2017-09-21T01:00:19.182Z,8.10
2017-09-21T01:01:19.146Z,8.12
2017-09-21T01:02:19.140Z,8.23
2017-09-21T01:03:19.111Z,8.13
2017-09-21T01:04:19.083Z,8.15
2017-09-21T01:05:19.099Z,8.15
2017-09-21T01:06:19.064Z,8.18
2017-09-21T01:07:19.059Z,8.10
2017-09-21T01:08:19.024Z,8.13
2017-09-21T01:09:18.996Z,8.19
2017-09-21T01:10:18.989Z,8.13
2017-09-21T01:11:18.961Z,8.16
2017-09-21T01:12:18.956Z,8.12
2017-09-21T01:13:18.938Z,8.15
2017-09-21T01:14:18.922Z,8.19
2017-09-21T01:15:18.872Z,8.19
2017-09-21T01:16:18.864Z,8.15
2017-09-21T01:17:18.861Z,8.15
2017-09-21T01:18:18.828Z,8.10
2017-09-21T01:19:18.812Z,8.15
2017-09-21T01:20:18.789Z,8.16
2017-09-21T01:21:18.770Z,8.18
2017-09-21T01:22:18.739Z,8.12
2017-09-21T01:23:19.314Z,8.20
2017-09-21T01:24:18.721Z,8.28
2017-09-21T01:25:18.699Z,8.30
2017-09-21T01:26:18.694Z,8.30
2017-09-21T01:27:18.658Z,8.34
2017-09-21T01:28:18.612Z,8.31
2017-09-21T01:29:18.619Z,8.27
2017-09-21T01:30:18.607Z,8.19
2017-09-21T01:31:18.566Z,8.26
2017-09-21T01:32:18.550Z,8.20
2017-09-21T01:33:18.555Z,8.27
2017-09-21T01:34:18.526Z,8.30
2017-09-21T01:35:18.488Z,8.31
2017-09-21T01:36:18.470Z,8.30
2017-09-21T01:37:18.474Z,8.38
2017-09-21T01:38:18.428Z,8.37
2017-09-21T01:39:18.416Z,8.34
2017-09-21T01:40:18.396Z,8.36
2017-09-21T01:41:18.366Z,8.36
2017-09-21T01:42:18.350Z,8.34
2017-09-21T01:43:18.329Z,8.30
2017-09-21T01:44:18.311Z,8.38
2017-09-21T01:45:18.308Z,8.46
2017-09-21T01:46:18.279Z,8.46
2017-09-21T01:47:18.259Z,8.41
2017-09-21T01:48:18.257Z,8.48
2017-09-21T01:49:18.236Z,8.46
2017-09-21T01:50:18.198Z,8.48
2017-09-21T01:51:18.205Z,8.48
2017-09-21T01:52:18.191Z,8.53
2017-09-21T01:53:18.176Z,8.49
2017-09-21T01:54:18.130Z,8.55
2017-09-21T01:55:18.152Z,8.56
2017-09-21T01:56:18.091Z,8.51
2017-09-21T01:57:18.076Z,8.44
2017-09-21T01:58:18.066Z,8.46
2017-09-21T01:59:18.026Z,8.41
2017-09-21T02:00:18.000Z,8.49
2017-09-21T02:01:18.006Z,8.42
2017-09-21T02:02:17.988Z,8.51
2017-09-21T02:03:17.953Z,8.52
2017-09-21T02:04:17.944Z,8.44
2017-09-21T02:05:17.937Z,8.46
2017-09-21T02:06:17.904Z,8.42
2017-09-21T02:07:17.863Z,8.52
2017-09-21T02:08:17.878Z,8.46
2017-09-21T02:09:17.862Z,8.46
2017-09-21T02:10:17.823Z,8.34
2017-09-21T02:11:17.797Z,8.34
2017-09-21T02:12:17.777Z,8.37
2017-09-21T02:13:17.783Z,8.36
2017-09-21T02:14:17.752Z,8.41
2017-09-21T02:15:17.740Z,8.30
2017-09-21T02:16:17.717Z,8.34
2017-09-21T02:17:17.700Z,8.31
2017-09-21T02:18:17.703Z,8.30
2017-09-21T02:19:17.649Z,8.23
2017-09-21T02:20:17.644Z,8.27
2017-09-21T02:21:17.619Z,8.16
2017-09-21T02:22:17.590Z,8.26
2017-09-21T02:23:17.580Z,8.27
2017-09-21T02:24:17.551Z,8.27
2017-09-21T02:25:17.524Z,8.27
2017-09-21T02:26:17.502Z,8.33
2017-09-21T02:27:17.488Z,8.28
2017-09-21T02:28:17.480Z,8.34
2017-09-21T02:29:17.477Z,8.38
2017-09-21T02:30:17.441Z,8.37
2017-09-21T02:31:17.421Z,8.36
2017-09-21T02:32:17.410Z,8.36
2017-09-21T02:33:17.386Z,8.36
2017-09-21T02:34:17.379Z,8.34
2017-09-21T02:35:17.327Z,8.31
2017-09-21T02:36:17.321Z,8.23
2017-09-21T02:37:17.326Z,8.26
2017-09-21T02:38:17.299Z,8.26
2017-09-21T02:39:17.257Z,8.19
2017-09-21T02:40:17.260Z,8.18
2017-09-21T02:41:17.226Z,8.26
2017-09-21T02:42:17.198Z,8.19
2017-09-21T02:43:17.212Z,8.18
2017-09-21T02:44:17.181Z,8.13
2017-09-21T02:45:17.174Z,8.16
2017-09-21T02:46:17.141Z,8.15
2017-09-21T02:47:17.119Z,8.19
2017-09-21T02:48:17.114Z,8.31
2017-09-21T02:49:17.063Z,8.20
2017-09-21T02:50:17.062Z,8.28
2017-09-21T02:51:17.038Z,8.15
2017-09-21T02:52:17.015Z,8.16
2017-09-21T02:53:16.988Z,8.15
2017-09-21T02:54:16.972Z,8.15
2017-09-21T02:55:16.952Z,8.12
2017-09-21T02:56:16.933Z,8.23
2017-09-21T02:57:16.925Z,8.13
2017-09-21T02:58:16.952Z,8.13
2017-09-21T02:59:16.916Z,8.15
2017-09-21T03:00:16.868Z,8.12
2017-09-21T03:01:16.849Z,8.13
2017-09-21T03:02:16.820Z,8.13
2017-09-21T03:03:16.814Z,8.15
2017-09-21T03:04:16.786Z,8.15
2017-09-21T03:05:16.771Z,8.18
2017-09-21T03:06:18.318Z,8.15
2017-09-21T03:07:16.742Z,8.16
2017-09-21T03:08:16.721Z,8.20
2017-09-21T03:09:16.694Z,8.18
2017-09-21T03:10:16.660Z,8.23
2017-09-21T03:11:16.653Z,8.13
2017-09-21T03:12:16.642Z,8.12
2017-09-21T03:13:16.598Z,8.12
2017-09-21T03:14:16.595Z,8.19
2017-09-21T03:15:16.578Z,8.12
2017-09-21T03:16:16.553Z,8.13
2017-09-21T03:17:16.541Z,8.13
2017-09-21T03:18:16.518Z,8.19
2017-09-21T03:19:16.510Z,8.16
2017-09-21T03:20:16.538Z,8.20
2017-09-21T03:21:16.443Z,8.20
2017-09-21T03:22:16.432Z,8.24
2017-09-21T03:23:16.413Z,8.30
2017-09-21T03:24:16.419Z,8.28
2017-09-21T03:25:16.364Z,8.36
2017-09-21T03:26:16.371Z,8.34
2017-09-21T03:27:16.346Z,8.36
2017-09-21T03:28:16.313Z,8.37
2017-09-21T03:29:16.310Z,8.34
2017-09-21T03:30:16.283Z,8.41
2017-09-21T03:31:16.286Z,8.45
2017-09-21T03:32:16.282Z,8.48
2017-09-21T03:33:16.247Z,8.45
2017-09-21T03:34:16.199Z,8.45
2017-09-21T03:35:16.186Z,8.49
2017-09-21T03:36:16.158Z,8.49
2017-09-21T03:37:16.146Z,8.56
2017-09-21T03:38:16.127Z,8.60
2017-09-21T03:39:16.120Z,8.58
2017-09-21T03:40:16.079Z,8.56
2017-09-21T03:41:16.075Z,8.61
2017-09-21T03:42:16.074Z,8.63
2017-09-21T03:43:16.048Z,8.63
2017-09-21T03:44:16.016Z,8.60
2017-09-21T03:45:15.991Z,8.63
2017-09-21T03:46:15.976Z,8.67
2017-09-21T03:47:15.960Z,8.70
2017-09-21T03:48:15.942Z,8.66
2017-09-21T03:49:15.907Z,8.64
2017-09-21T03:50:15.895Z,8.61
2017-09-21T03:51:15.909Z,8.66
2017-09-21T03:52:15.878Z,8.64
2017-09-21T03:53:16.335Z,8.67
2017-09-21T03:54:15.830Z,8.67
2017-09-21T03:55:15.805Z,8.67
2017-09-21T03:56:15.776Z,8.69
2017-09-21T03:57:15.755Z,8.67
2017-09-21T03:58:15.762Z,8.66
2017-09-21T03:59:15.743Z,8.64
2017-09-21T04:00:15.717Z,8.63
2017-09-21T04:01:15.693Z,8.64
2017-09-21T04:02:15.698Z,8.71
2017-09-21T04:03:15.660Z,8.63
2017-09-21T04:04:15.627Z,8.63
2017-09-21T04:05:15.614Z,8.63
2017-09-21T04:06:15.601Z,8.61
2017-09-21T04:07:15.583Z,8.70
2017-09-21T04:08:15.556Z,8.71
2017-09-21T04:09:15.528Z,8.69
2017-09-21T04:10:15.519Z,8.69
2017-09-21T04:11:15.511Z,8.67
2017-09-21T04:12:15.495Z,8.66
2017-09-21T04:13:15.444Z,8.61
2017-09-21T04:14:15.449Z,8.61
2017-09-21T04:15:15.432Z,8.64
2017-09-21T04:16:15.414Z,8.64
2017-09-21T04:17:15.384Z,8.67
2017-09-21T04:18:15.363Z,8.66
2017-09-21T04:19:15.363Z,8.69
2017-09-21T04:20:15.340Z,8.63
2017-09-21T04:21:15.309Z,8.69
2017-09-21T04:22:15.307Z,8.71
2017-09-21T04:23:15.314Z,8.70
2017-09-21T04:24:15.227Z,8.71
2017-09-21T04:25:15.218Z,8.71
2017-09-21T04:26:15.214Z,8.84
2017-09-21T04:27:15.188Z,8.85
2017-09-21T04:28:15.168Z,8.87
2017-09-21T04:29:15.166Z,8.89
2017-09-21T04:30:15.160Z,8.85
2017-09-21T04:31:15.145Z,8.85
2017-09-21T04:32:15.105Z,8.84
2017-09-21T04:33:15.087Z,8.97
2017-09-21T04:34:15.055Z,8.95
2017-09-21T04:35:15.066Z,8.97
2017-09-21T04:36:15.023Z,8.94
2017-09-21T04:37:14.979Z,8.97
2017-09-21T04:38:15.005Z,8.92
2017-09-21T04:39:14.959Z,8.91
2017-09-21T04:40:14.961Z,8.92
2017-09-21T04:41:14.914Z,9.00
2017-09-21T04:42:14.926Z,8.94
2017-09-21T04:43:14.886Z,9.03
2017-09-21T04:44:14.873Z,9.02
2017-09-21T04:45:14.833Z,9.00
2017-09-21T04:46:14.830Z,9.08
2017-09-21T04:47:14.821Z,9.04
2017-09-21T04:48:14.804Z,9.06
2017-09-21T04:49:14.775Z,9.03
2017-09-21T04:50:14.749Z,9.03
2017-09-21T04:51:14.748Z,9.10
2017-09-21T04:52:14.705Z,9.06
2017-09-21T04:53:14.707Z,9.06
2017-09-21T04:54:14.690Z,9.04
2017-09-21T04:55:14.663Z,9.11
2017-09-21T04:56:14.640Z,9.10
2017-09-21T04:57:14.621Z,9.18
2017-09-21T04:58:14.587Z,9.14
2017-09-21T04:59:14.581Z,9.06
2017-09-21T05:00:14.552Z,9.11
2017-09-21T05:01:14.561Z,9.14
2017-09-21T05:02:14.531Z,9.23
2017-09-21T05:03:14.509Z,9.22
2017-09-21T05:04:14.490Z,9.19
2017-09-21T05:05:14.480Z,9.19
2017-09-21T05:06:14.440Z,9.22
2017-09-21T05:07:14.427Z,9.26
2017-09-21T05:08:14.400Z,9.28
2017-09-21T05:09:14.403Z,9.29
2017-09-21T05:10:14.390Z,9.26
2017-09-21T05:11:14.861Z,9.28
2017-09-21T05:12:14.330Z,9.31
2017-09-21T05:13:14.309Z,9.28
2017-09-21T05:14:14.346Z,9.31
2017-09-21T05:15:14.302Z,9.34
2017-09-21T05:16:14.278Z,9.26
2017-09-21T05:17:14.354Z,9.29
2017-09-21T05:18:14.352Z,9.29
2017-09-21T05:19:14.202Z,9.36
2017-09-21T05:20:14.185Z,9.39
2017-09-21T05:21:14.165Z,9.43
2017-09-21T05:22:14.165Z,9.34
2017-09-21T05:23:14.133Z,9.39
2017-09-21T05:24:14.100Z,9.37
2017-09-21T05:25:14.089Z,9.34
2017-09-21T05:26:14.077Z,9.41
2017-09-21T05:27:14.052Z,9.48
2017-09-21T05:28:14.027Z,9.48
2017-09-21T05:29:14.025Z,9.47
2017-09-21T05:30:13.985Z,9.48
2017-09-21T05:31:13.982Z,9.48
2017-09-21T05:32:15.883Z,9.51
2017-09-21T05:33:13.933Z,9.50
2017-09-21T05:34:13.932Z,9.51
2017-09-21T05:35:13.886Z,9.47
2017-09-21T05:36:13.900Z,9.47
2017-09-21T05:37:13.887Z,9.48
2017-09-21T05:38:13.879Z,9.46
2017-09-21T05:39:13.822Z,9.34
2017-09-21T05:40:13.809Z,9.46
2017-09-21T05:41:13.829Z,9.48
2017-09-21T05:42:13.770Z,9.40
2017-09-21T05:43:13.748Z,9.34
2017-09-21T05:44:13.746Z,9.32
2017-09-21T05:45:13.718Z,9.43
2017-09-21T05:46:13.702Z,9.39
2017-09-21T05:47:13.689Z,9.39
2017-09-21T05:48:13.665Z,9.43
2017-09-21T05:49:13.647Z,9.40
2017-09-21T05:50:13.639Z,9.34
2017-09-21T05:51:13.609Z,9.48
2017-09-21T05:52:13.617Z,9.51
2017-09-21T05:53:13.577Z,9.47
2017-09-21T05:54:13.536Z,9.37
2017-09-21T05:55:13.531Z,9.50
2017-09-21T05:56:13.518Z,9.50
2017-09-21T05:57:13.495Z,9.46
2017-09-21T05:58:13.475Z,9.48
2017-09-21T05:59:13.486Z,9.58
2017-09-21T06:00:13.429Z,9.64
2017-09-21T06:01:13.428Z,9.61
2017-09-21T06:02:13.443Z,9.68
2017-09-21T06:03:13.371Z,9.56
2017-09-21T06:04:13.378Z,9.65
2017-09-21T06:05:13.373Z,9.64
2017-09-21T06:06:13.347Z,9.65
2017-09-21T06:07:13.316Z,9.72
2017-09-21T06:08:13.323Z,9.68
2017-09-21T06:09:13.270Z,9.69
2017-09-21T06:10:13.888Z,9.84
2017-09-21T06:11:13.223Z,9.83
2017-09-21T06:12:13.238Z,9.83
2017-09-21T06:13:13.216Z,9.89
2017-09-21T06:14:13.179Z,9.87
2017-09-21T06:15:13.162Z,9.86
2017-09-21T06:16:13.137Z,9.87
2017-09-21T06:17:13.143Z,9.87
2017-09-21T06:18:13.109Z,9.94
2017-09-21T06:19:13.082Z,9.99
2017-09-21T06:20:13.070Z,9.99
2017-09-21T06:21:13.073Z,10.01
2017-09-21T06:22:13.028Z,10.04
2017-09-21T06:23:13.016Z,9.95
2017-09-21T06:24:12.987Z,9.98
2017-09-21T06:25:13.017Z,10.05
2017-09-21T06:26:12.959Z,10.07
2017-09-21T06:27:12.951Z,10.07
2017-09-21T06:28:12.911Z,10.01
2017-09-21T06:29:12.898Z,10.15
2017-09-21T06:30:13.742Z,10.15
2017-09-21T06:33:08.472Z,10.25
2017-09-21T06:34:08.952Z,10.16
2017-09-21T06:36:06.580Z,10.31
2017-09-21T06:37:03.812Z,10.30
2017-09-21T06:38:02.863Z,10.31
2017-09-21T06:39:03.279Z,10.31
2017-09-21T06:40:02.903Z,10.42
2017-09-21T06:41:02.885Z,10.40
2017-09-21T06:42:04.213Z,10.41
2017-09-21T06:43:03.212Z,10.54
2017-09-21T06:44:05.320Z,10.41
2017-09-21T06:45:08.258Z,10.42
2017-09-21T06:46:04.377Z,10.41
2017-09-21T06:47:03.112Z,10.48
2017-09-21T06:48:03.425Z,10.53
2017-09-21T06:49:03.593Z,10.59
2017-09-21T06:50:03.592Z,10.53
2017-09-21T06:51:03.837Z,10.61
2017-09-21T06:52:04.120Z,10.71
2017-09-21T06:53:03.398Z,10.69
2017-09-21T06:54:03.488Z,10.63
2017-09-21T06:55:02.569Z,10.76
2017-09-21T06:56:02.953Z,10.68
2017-09-21T06:57:03.793Z,10.75
2017-09-21T06:58:02.928Z,10.72
2017-09-21T06:59:03.482Z,10.82
2017-09-21T07:00:02.428Z,10.84
2017-09-21T07:01:02.403Z,10.89
2017-09-21T07:02:02.399Z,10.94
2017-09-21T07:03:02.356Z,11.02
2017-09-21T07:04:02.393Z,10.96
2017-09-21T07:05:02.385Z,10.96
2017-09-21T07:06:02.312Z,11.04
2017-09-21T07:07:02.292Z,11.08
2017-09-21T07:08:02.285Z,11.10
2017-09-21T07:09:02.264Z,11.10
2017-09-21T07:10:02.250Z,11.17
2017-09-21T07:11:02.222Z,11.18
2017-09-21T07:12:02.210Z,11.10
2017-09-21T07:13:02.212Z,11.17
2017-09-21T07:14:02.164Z,11.12
2017-09-21T07:15:02.172Z,11.18
2017-09-21T07:16:02.151Z,11.15
2017-09-21T07:17:02.116Z,11.22
2017-09-21T07:18:02.085Z,11.35
2017-09-21T07:19:02.087Z,11.35
2017-09-21T07:20:02.094Z,11.47
2017-09-21T07:21:02.061Z,11.48
2017-09-21T07:22:02.058Z,11.48
2017-09-21T07:23:02.014Z,11.63
2017-09-21T07:24:01.987Z,11.62
2017-09-21T07:25:01.976Z,11.60
2017-09-21T07:26:01.984Z,11.77
2017-09-21T07:27:01.955Z,11.75
2017-09-21T07:28:01.951Z,11.75
2017-09-21T07:29:01.893Z,11.84
2017-09-21T07:30:01.908Z,11.83
2017-09-21T07:31:01.860Z,11.78
2017-09-21T07:32:01.908Z,11.81
2017-09-21T07:33:01.850Z,11.73
2017-09-21T07:34:01.808Z,11.78
2017-09-21T07:35:01.897Z,11.73
2017-09-21T07:36:02.804Z,11.72
2017-09-21T07:37:01.815Z,11.73
2017-09-21T07:38:01.783Z,11.84
2017-09-21T07:39:01.772Z,11.88
2017-09-21T07:40:01.777Z,11.86
2017-09-21T07:41:01.746Z,11.97
2017-09-21T07:42:01.742Z,11.91
2017-09-21T07:43:01.758Z,12.00
2017-09-21T07:44:02.487Z,12.02
2017-09-21T07:45:12.391Z,11.99
2017-09-21T07:46:58.781Z,11.91
2017-09-21T07:48:02.240Z,11.94
2017-09-21T07:48:56.651Z,12.00
2017-09-21T07:49:56.722Z,12.00
2017-09-21T07:50:58.187Z,12.00
2017-09-21T07:51:57.335Z,11.97
2017-09-21T07:52:57.621Z,12.06
2017-09-21T07:53:56.457Z,12.07
2017-09-21T07:54:56.497Z,12.09
2017-09-21T07:55:56.466Z,12.15
2017-09-21T07:56:56.422Z,12.13
2017-09-21T07:57:56.404Z,12.17
2017-09-21T07:58:56.415Z,12.18
2017-09-21T07:59:56.307Z,12.24
2017-09-21T08:00:56.276Z,12.25
2017-09-21T08:01:56.255Z,12.27
2017-09-21T08:02:56.383Z,12.31
2017-09-21T08:03:56.268Z,12.42
2017-09-21T08:04:56.333Z,12.49
2017-09-21T08:05:56.328Z,12.45
2017-09-21T08:06:56.227Z,12.25
2017-09-21T08:07:56.212Z,12.25
2017-09-21T08:08:56.261Z,12.10
2017-09-21T08:09:56.218Z,12.06
2017-09-21T08:10:56.211Z,12.04
2017-09-21T08:11:56.170Z,12.00
2017-09-21T08:12:56.146Z,11.99
2017-09-21T08:13:56.094Z,12.10
2017-09-21T08:14:56.116Z,12.09
2017-09-21T08:15:56.019Z,12.10
2017-09-21T08:16:56.014Z,12.24
2017-09-21T08:17:56.033Z,12.18
2017-09-21T08:18:56.022Z,12.39
2017-09-21T08:19:56.026Z,12.45
2017-09-21T08:20:55.987Z,12.46
2017-09-21T08:21:55.970Z,12.50
2017-09-21T08:22:56.030Z,12.53
2017-09-21T08:23:55.907Z,12.57
2017-09-21T08:24:55.888Z,12.67
2017-09-21T08:25:55.887Z,12.57
2017-09-21T08:26:55.841Z,12.54
2017-09-21T08:27:55.841Z,12.54
2017-09-21T08:28:55.801Z,12.46
2017-09-21T08:29:55.804Z,12.37
2017-09-21T08:30:55.761Z,12.29
2017-09-21T08:31:55.784Z,12.40
2017-09-21T08:32:55.743Z,12.36
2017-09-21T08:33:55.767Z,12.21
2017-09-21T08:34:55.712Z,12.22
2017-09-21T08:35:55.681Z,12.24
2017-09-21T08:36:55.670Z,12.36
2017-09-21T08:37:55.639Z,12.39
2017-09-21T08:38:55.640Z,12.39
2017-09-21T08:39:55.617Z,12.46
2017-09-21T08:40:55.615Z,12.58
2017-09-21T08:41:55.587Z,12.61
2017-09-21T08:42:55.580Z,12.70
2017-09-21T08:43:55.579Z,12.78
2017-09-21T08:44:55.529Z,12.85
2017-09-21T08:45:55.492Z,12.91
2017-09-21T08:46:55.492Z,12.98
2017-09-21T08:47:55.445Z,12.97
2017-09-21T08:48:55.448Z,12.98
2017-09-21T08:49:55.423Z,13.00
2017-09-21T08:50:55.444Z,12.97
2017-09-21T08:51:55.414Z,13.04
2017-09-21T08:52:56.068Z,12.97
2017-09-21T08:53:55.358Z,12.98
2017-09-21T08:54:55.366Z,12.97
2017-09-21T08:55:55.314Z,13.12
2017-09-21T08:56:55.332Z,13.11
2017-09-21T08:57:55.287Z,13.08
2017-09-21T08:58:55.292Z,13.12
2017-09-21T08:59:55.277Z,13.15
2017-09-21T09:00:55.259Z,13.18
2017-09-21T09:01:55.224Z,13.18
2017-09-21T09:02:55.212Z,13.25
2017-09-21T09:03:55.205Z,13.31
2017-09-21T09:04:55.202Z,13.16
2017-09-21T09:05:55.163Z,13.08
2017-09-21T09:06:55.137Z,13.01
2017-09-21T09:07:55.137Z,13.01
2017-09-21T09:08:55.120Z,13.08
2017-09-21T09:09:55.100Z,13.04
2017-09-21T09:10:55.114Z,13.04
2017-09-21T09:11:55.088Z,13.08
2017-09-21T09:12:55.054Z,13.00
2017-09-21T09:13:55.020Z,13.05
2017-09-21T09:14:55.071Z,13.05
2017-09-21T09:15:55.080Z,13.09
2017-09-21T09:16:54.990Z,13.15
2017-09-21T09:17:54.963Z,13.15
2017-09-21T09:18:54.993Z,13.20
2017-09-21T09:19:54.915Z,13.28
2017-09-21T09:20:54.910Z,13.30
2017-09-21T09:21:54.883Z,13.42
2017-09-21T09:22:54.886Z,13.37
2017-09-21T09:23:54.871Z,13.37
2017-09-21T09:24:54.871Z,13.39
2017-09-21T09:25:54.841Z,13.42
2017-09-21T09:26:54.804Z,13.42
2017-09-21T09:27:54.829Z,13.46
2017-09-21T09:28:54.807Z,13.38
2017-09-21T09:29:54.764Z,13.42
2017-09-21T09:30:54.735Z,13.59
2017-09-21T09:31:54.753Z,13.60
2017-09-21T09:32:54.711Z,13.67
2017-09-21T09:33:54.682Z,13.68
2017-09-21T09:34:54.695Z,13.72
2017-09-21T09:35:54.669Z,13.79
2017-09-21T09:36:54.645Z,13.87
2017-09-21T09:37:54.631Z,13.89
2017-09-21T09:38:54.624Z,13.87
2017-09-21T09:39:54.616Z,13.97
2017-09-21T09:40:54.588Z,13.90
2017-09-21T09:41:54.575Z,13.93
2017-09-21T09:42:54.606Z,13.96
2017-09-21T09:43:54.566Z,13.92
2017-09-21T09:44:54.565Z,13.89
2017-09-21T09:45:54.612Z,13.92
2017-09-21T09:46:54.477Z,13.93
2017-09-21T09:47:54.485Z,13.95
2017-09-21T09:48:54.473Z,13.89
2017-09-21T09:49:54.546Z,13.97
2017-09-21T09:50:54.464Z,13.96
2017-09-21T09:51:54.442Z,13.96
2017-09-21T09:52:54.385Z,13.99
2017-09-21T09:53:54.412Z,14.03
2017-09-21T09:54:54.389Z,14.10
2017-09-21T09:55:54.424Z,14.08
2017-09-21T09:56:54.377Z,14.17
2017-09-21T09:57:54.384Z,14.22
2017-09-21T09:58:54.308Z,14.18
2017-09-21T09:59:54.280Z,14.22
2017-09-21T10:00:54.302Z,14.20
2017-09-21T10:01:54.279Z,14.29
2017-09-21T10:02:54.254Z,14.23
2017-09-21T10:03:54.227Z,14.20
2017-09-21T10:04:54.219Z,14.20
2017-09-21T10:05:54.310Z,14.23
2017-09-21T10:06:54.196Z,14.36
2017-09-21T10:07:54.186Z,14.44
2017-09-21T10:08:54.159Z,14.47
2017-09-21T10:09:54.147Z,14.44
2017-09-21T10:10:54.137Z,14.44
2017-09-21T10:11:54.172Z,14.40
2017-09-21T10:12:54.094Z,14.48
2017-09-21T10:13:54.153Z,14.53
2017-09-21T10:14:54.057Z,14.54
2017-09-21T10:15:54.080Z,14.54
2017-09-21T10:16:54.041Z,14.68
2017-09-21T10:17:54.042Z,14.66
2017-09-21T10:18:54.037Z,14.72
2017-09-21T10:19:53.971Z,14.79
2017-09-21T10:20:54.000Z,14.63
2017-09-21T10:21:54.010Z,14.53
2017-09-21T10:22:53.962Z,14.48
2017-09-21T10:23:53.922Z,14.48
2017-09-21T10:24:53.866Z,14.53
2017-09-21T10:25:53.875Z,14.54
2017-09-21T10:26:53.858Z,14.54
2017-09-21T10:27:53.847Z,14.66
2017-09-21T10:28:53.876Z,14.78
2017-09-21T10:29:53.808Z,14.82
2017-09-21T10:30:53.820Z,14.92
2017-09-21T10:31:53.816Z,15.21
2017-09-21T10:32:53.768Z,15.33
2017-09-21T10:33:53.874Z,15.43
2017-09-21T10:34:53.856Z,15.61
2017-09-21T10:35:53.740Z,15.72
2017-09-21T10:36:53.734Z,15.80
2017-09-21T10:37:53.658Z,15.77
2017-09-21T10:38:53.633Z,15.75
2017-09-21T10:39:53.613Z,15.82
2017-09-21T10:40:53.608Z,15.86
2017-09-21T10:41:53.636Z,16.10
2017-09-21T10:42:53.574Z,16.20
2017-09-21T10:43:53.554Z,16.20
2017-09-21T10:44:53.522Z,16.17
2017-09-21T10:45:53.549Z,16.28
2017-09-21T10:46:53.497Z,16.26
2017-09-21T10:47:53.514Z,16.35
2017-09-21T10:48:53.463Z,16.38
2017-09-21T10:49:53.477Z,16.39
2017-09-21T10:50:53.432Z,16.54
2017-09-21T10:51:53.447Z,16.71
2017-09-21T10:52:53.414Z,16.93
2017-09-21T10:53:53.382Z,17.15
2017-09-21T10:54:53.364Z,17.39
2017-09-21T10:55:53.409Z,17.29
2017-09-21T10:56:53.369Z,17.23
2017-09-21T10:57:53.351Z,17.24
2017-09-21T10:58:53.360Z,17.38
2017-09-21T10:59:53.352Z,17.38
2017-09-21T11:00:53.333Z,17.45
2017-09-21T11:01:53.289Z,17.48
2017-09-21T11:02:53.283Z,17.49
2017-09-21T11:03:53.268Z,17.71
2017-09-21T11:04:53.236Z,17.89
2017-09-21T11:05:53.354Z,18.25
2017-09-21T11:06:53.199Z,18.52
2017-09-21T11:07:53.235Z,18.77
2017-09-21T11:08:53.237Z,18.92
2017-09-21T11:09:53.178Z,19.30
2017-09-21T11:10:53.201Z,20.21
2017-09-21T11:11:53.169Z,21.55
2017-09-21T11:12:53.102Z,23.00
2017-09-21T11:13:53.076Z,24.23
2017-09-21T11:14:53.084Z,25.18
2017-09-21T11:15:53.062Z,25.77
2017-09-21T11:16:53.083Z,25.88
2017-09-21T11:17:53.072Z,25.31
2017-09-21T11:18:53.068Z,24.35
2017-09-21T11:19:53.046Z,23.37
2017-09-21T11:20:53.036Z,22.65
2017-09-21T11:21:52.993Z,22.75
2017-09-21T11:22:53.003Z,23.06
2017-09-21T11:23:52.955Z,23.61
2017-09-21T11:24:53.001Z,24.21
2017-09-21T11:25:52.946Z,24.66
2017-09-21T11:26:52.947Z,25.04
2017-09-21T11:27:52.930Z,25.22
2017-09-21T11:28:52.865Z,25.36
2017-09-21T11:29:52.885Z,25.60
2017-09-21T11:30:52.914Z,25.83
2017-09-21T11:31:52.864Z,25.84
2017-09-21T11:32:52.880Z,25.83
2017-09-21T11:33:52.868Z,25.84
2017-09-21T11:34:53.522Z,25.84
2017-09-21T11:35:52.842Z,25.84
2017-09-21T11:36:52.802Z,25.66
2017-09-21T11:37:52.790Z,25.59
2017-09-21T11:38:52.777Z,25.38
2017-09-21T11:39:52.750Z,25.31
2017-09-21T11:40:52.808Z,25.17
2017-09-21T11:41:52.788Z,25.14
2017-09-21T11:42:52.817Z,25.11
2017-09-21T11:43:52.734Z,25.11
2017-09-21T11:44:52.768Z,25.04
2017-09-21T11:45:52.690Z,25.21
2017-09-21T11:46:52.695Z,25.13
2017-09-21T11:47:52.779Z,25.11
2017-09-21T11:48:52.690Z,25.16
2017-09-21T11:49:52.710Z,25.29
2017-09-21T11:50:52.704Z,25.31
2017-09-21T11:51:52.593Z,25.43
2017-09-21T11:52:52.663Z,25.58
2017-09-21T11:53:52.620Z,25.69
2017-09-21T11:54:52.556Z,25.87
2017-09-21T11:55:52.581Z,26.13
2017-09-21T11:56:52.591Z,26.26
2017-09-21T11:57:52.514Z,26.44
2017-09-21T11:58:52.563Z,26.45
2017-09-21T11:59:52.511Z,26.37
2017-09-21T12:00:52.536Z,26.31
2017-09-21T12:01:52.484Z,26.28
2017-09-21T12:02:52.484Z,26.34
2017-09-21T12:03:52.471Z,26.41
2017-09-21T12:04:52.485Z,26.48
2017-09-21T12:05:52.455Z,26.53
2017-09-21T12:06:52.422Z,26.52
2017-09-21T12:07:53.034Z,26.44
2017-09-21T12:08:52.437Z,26.38
2017-09-21T12:09:52.405Z,26.41
2017-09-21T12:10:52.418Z,26.58
2017-09-21T12:11:52.389Z,26.75
2017-09-21T12:12:52.417Z,26.83
2017-09-21T12:13:52.380Z,26.77
2017-09-21T12:14:52.425Z,26.59
2017-09-21T12:15:52.355Z,26.68
2017-09-21T12:16:52.407Z,26.62
2017-09-21T12:17:52.397Z,26.78
2017-09-21T12:18:52.371Z,26.93
2017-09-21T12:19:52.319Z,26.96
2017-09-21T12:20:52.331Z,27.12
2017-09-21T12:21:52.291Z,27.10
2017-09-21T12:22:52.308Z,27.26
2017-09-21T12:23:52.364Z,27.32
2017-09-21T12:24:53.038Z,27.21
2017-09-21T12:25:52.258Z,27.30
2017-09-21T12:26:52.227Z,27.30
2017-09-21T12:27:52.320Z,27.18
2017-09-21T12:28:52.237Z,27.35
2017-09-21T12:29:52.313Z,27.32
2017-09-21T12:30:52.184Z,27.22
2017-09-21T12:31:52.235Z,27.27
2017-09-21T12:32:52.177Z,27.32
2017-09-21T12:33:52.220Z,27.14
2017-09-21T12:34:52.168Z,27.07
2017-09-21T12:35:52.315Z,27.02
2017-09-21T12:36:52.184Z,26.95
2017-09-21T12:37:52.161Z,26.99
2017-09-21T12:38:52.134Z,26.95
2017-09-21T12:39:52.092Z,26.95
2017-09-21T12:40:52.092Z,26.99
2017-09-21T12:41:52.151Z,27.10
2017-09-21T12:42:52.119Z,27.07
2017-09-21T12:43:52.096Z,27.07
2017-09-21T12:44:52.673Z,26.81
2017-09-21T12:45:52.070Z,26.68
2017-09-21T12:46:52.045Z,26.52
2017-09-21T12:47:52.063Z,26.45
2017-09-21T12:48:52.049Z,26.47
2017-09-21T12:49:51.994Z,26.38
2017-09-21T12:50:51.999Z,26.13
2017-09-21T12:51:52.012Z,25.95
2017-09-21T12:52:51.977Z,25.69
2017-09-21T12:53:51.998Z,25.50
2017-09-21T12:54:51.998Z,25.26
2017-09-21T12:55:51.953Z,25.13
2017-09-21T12:56:51.949Z,24.93
2017-09-21T12:57:51.936Z,24.77
2017-09-21T12:58:52.025Z,24.47
2017-09-21T12:59:51.960Z,24.43
2017-09-21T13:00:51.949Z,24.28
2017-09-21T13:01:51.890Z,24.18
2017-09-21T13:02:51.941Z,24.05
2017-09-21T13:03:51.927Z,23.77
2017-09-21T13:04:51.855Z,23.65
2017-09-21T13:05:51.868Z,23.66
2017-09-21T13:06:51.902Z,23.68
2017-09-21T13:07:51.873Z,23.76
2017-09-21T13:08:51.835Z,23.65